sensor_id;sensor_type;location;lat;lon;timestamp;pressure;altitude;pressure_sealevel;temperature;humidity
1480;BME280;732;51.698;4.886;2023-03-14T00:01:18;99020.59;;;7.13;65.00
1480;BME280;732;51.698;4.886;2023-03-14T00:03:48;99067.34;;;7.42;65.22
1480;BME280;732;51.698;4.886;2023-03-14T00:06:17;99067.97;;;7.44;65.31
1480;BME280;732;51.698;4.886;2023-03-14T00:08:47;99033.28;;;7.17;65.24
1480;BME280;732;51.698;4.886;2023-03-14T00:11:20;99043.38;;;7.15;66.17
1480;BME280;732;51.698;4.886;2023-03-14T00:13:49;99054.84;;;7.36;66.01
1480;BME280;732;51.698;4.886;2023-03-14T00:16:19;99043.34;;;7.42;65.07
1480;BME280;732;51.698;4.886;2023-03-14T00:18:48;99060.16;;;7.63;65.46
1480;BME280;732;51.698;4.886;2023-03-14T00:21:17;99011.53;;;7.27;65.46
1480;BME280;732;51.698;4.886;2023-03-14T00:23:45;99032.69;;;7.36;65.53
1480;BME280;732;51.698;4.886;2023-03-14T00:26:19;99018.50;;;7.35;65.24
1480;BME280;732;51.698;4.886;2023-03-14T00:28:51;99036.59;;;7.33;65.63
1480;BME280;732;51.698;4.886;2023-03-14T00:31:20;99049.31;;;7.38;65.28
1480;BME280;732;51.698;4.886;2023-03-14T00:33:52;99039.88;;;7.08;65.92
1480;BME280;732;51.698;4.886;2023-03-14T00:36:21;99035.78;;;7.06;66.04
1480;BME280;732;51.698;4.886;2023-03-14T00:38:51;99058.75;;;7.13;66.26
1480;BME280;732;51.698;4.886;2023-03-14T00:41:22;99056.09;;;7.27;66.26
1480;BME280;732;51.698;4.886;2023-03-14T00:43:51;99069.22;;;7.28;65.82
1480;BME280;732;51.698;4.886;2023-03-14T00:46:20;99056.69;;;7.22;65.57
1480;BME280;732;51.698;4.886;2023-03-14T00:48:49;99055.88;;;7.28;65.98
1480;BME280;732;51.698;4.886;2023-03-14T00:51:17;99066.13;;;7.25;65.95
1480;BME280;732;51.698;4.886;2023-03-14T00:53:45;99061.63;;;7.25;65.81
1480;BME280;732;51.698;4.886;2023-03-14T00:56:15;99069.03;;;7.16;66.06
1480;BME280;732;51.698;4.886;2023-03-14T00:58:44;99072.28;;;7.19;65.69
1480;BME280;732;51.698;4.886;2023-03-14T01:01:16;99059.97;;;7.17;65.87
1480;BME280;732;51.698;4.886;2023-03-14T01:03:46;99075.78;;;7.26;66.26
1480;BME280;732;51.698;4.886;2023-03-14T01:06:17;99064.88;;;7.07;67.86
1480;BME280;732;51.698;4.886;2023-03-14T01:08:47;99085.19;;;6.95;68.63
1480;BME280;732;51.698;4.886;2023-03-14T01:11:18;99058.22;;;6.56;69.32
1480;BME280;732;51.698;4.886;2023-03-14T01:13:49;99066.44;;;6.61;71.26
1480;BME280;732;51.698;4.886;2023-03-14T01:16:19;99089.41;;;6.69;74.22
1480;BME280;732;51.698;4.886;2023-03-14T01:18:48;99072.34;;;6.50;74.85
1480;BME280;732;51.698;4.886;2023-03-14T01:21:19;99070.97;;;6.19;76.53
1480;BME280;732;51.698;4.886;2023-03-14T01:23:49;99078.03;;;5.98;77.57
1480;BME280;732;51.698;4.886;2023-03-14T01:26:21;99075.22;;;5.71;77.92
1480;BME280;732;51.698;4.886;2023-03-14T01:28:54;99042.91;;;5.75;78.08
1480;BME280;732;51.698;4.886;2023-03-14T01:31:24;99021.00;;;5.79;77.94
1480;BME280;732;51.698;4.886;2023-03-14T01:33:53;99038.97;;;6.06;77.11
1480;BME280;732;51.698;4.886;2023-03-14T01:36:22;99048.59;;;6.07;76.94
1480;BME280;732;51.698;4.886;2023-03-14T01:38:51;99054.31;;;6.03;76.78
1480;BME280;732;51.698;4.886;2023-03-14T01:41:22;99069.16;;;6.19;76.79
1480;BME280;732;51.698;4.886;2023-03-14T01:43:55;99063.59;;;6.14;77.03
1480;BME280;732;51.698;4.886;2023-03-14T01:46:36;99063.53;;;6.08;76.68
1480;BME280;732;51.698;4.886;2023-03-14T01:49:19;99027.63;;;5.97;76.38
1480;BME280;732;51.698;4.886;2023-03-14T01:52:03;99045.75;;;6.08;76.82
1480;BME280;732;51.698;4.886;2023-03-14T01:54:37;99031.72;;;5.86;75.95
1480;BME280;732;51.698;4.886;2023-03-14T01:57:11;99037.75;;;6.08;76.06
1480;BME280;732;51.698;4.886;2023-03-14T01:59:48;99037.91;;;6.00;75.52
1480;BME280;732;51.698;4.886;2023-03-14T02:02:18;99032.19;;;6.03;75.59
1480;BME280;732;51.698;4.886;2023-03-14T02:04:48;99009.56;;;5.85;75.54
1480;BME280;732;51.698;4.886;2023-03-14T02:07:22;99029.72;;;6.01;76.35
1480;BME280;732;51.698;4.886;2023-03-14T02:10:04;99029.28;;;5.91;75.74
1480;BME280;732;51.698;4.886;2023-03-14T02:12:34;99021.13;;;5.99;76.25
1480;BME280;732;51.698;4.886;2023-03-14T02:15:13;98973.88;;;5.73;75.82
1480;BME280;732;51.698;4.886;2023-03-14T02:17:57;99000.38;;;5.88;75.26
1480;BME280;732;51.698;4.886;2023-03-14T02:20:51;98980.91;;;5.81;75.25
1480;BME280;732;51.698;4.886;2023-03-14T02:23:31;98986.47;;;5.93;74.88
1480;BME280;732;51.698;4.886;2023-03-14T02:26:08;99009.69;;;6.06;74.63
1480;BME280;732;51.698;4.886;2023-03-14T02:28:40;98979.91;;;5.88;74.68
1480;BME280;732;51.698;4.886;2023-03-14T02:31:08;99009.69;;;6.06;74.13
1480;BME280;732;51.698;4.886;2023-03-14T02:33:38;98981.38;;;5.98;74.55
1480;BME280;732;51.698;4.886;2023-03-14T02:36:10;99010.72;;;6.18;73.69
1480;BME280;732;51.698;4.886;2023-03-14T02:38:45;99017.47;;;6.14;73.83
1480;BME280;732;51.698;4.886;2023-03-14T02:41:16;99009.34;;;6.22;73.67
1480;BME280;732;51.698;4.886;2023-03-14T02:43:53;99010.16;;;6.23;73.97
1480;BME280;732;51.698;4.886;2023-03-14T02:46:22;98994.53;;;6.13;74.00
1480;BME280;732;51.698;4.886;2023-03-14T02:48:54;98996.63;;;6.24;74.06
1480;BME280;732;51.698;4.886;2023-03-14T02:51:24;98999.50;;;6.23;73.62
1480;BME280;732;51.698;4.886;2023-03-14T02:53:54;98993.78;;;6.26;73.93
1480;BME280;732;51.698;4.886;2023-03-14T02:56:24;98977.75;;;6.19;73.93
1480;BME280;732;51.698;4.886;2023-03-14T02:58:55;98989.72;;;6.36;73.76
1480;BME280;732;51.698;4.886;2023-03-14T03:01:35;98974.94;;;6.27;73.31
1480;BME280;732;51.698;4.886;2023-03-14T03:04:04;99002.59;;;6.33;74.19
1480;BME280;732;51.698;4.886;2023-03-14T03:06:33;98972.66;;;6.24;73.75
1480;BME280;732;51.698;4.886;2023-03-14T03:09:01;98978.69;;;6.40;73.51
1480;BME280;732;51.698;4.886;2023-03-14T03:11:30;98999.19;;;6.46;73.03
1480;BME280;732;51.698;4.886;2023-03-14T03:14:01;98976.78;;;6.33;73.16
1480;BME280;732;51.698;4.886;2023-03-14T03:16:29;99000.00;;;6.40;73.93
1480;BME280;732;51.698;4.886;2023-03-14T03:18:59;98989.28;;;6.33;74.35
1480;BME280;732;51.698;4.886;2023-03-14T03:21:28;98995.69;;;6.45;73.85
1480;BME280;732;51.698;4.886;2023-03-14T03:23:56;98962.63;;;6.26;73.75
1480;BME280;732;51.698;4.886;2023-03-14T03:26:24;98999.41;;;6.44;73.19
1480;BME280;732;51.698;4.886;2023-03-14T03:28:53;98961.44;;;6.35;73.38
1480;BME280;732;51.698;4.886;2023-03-14T03:31:24;98934.91;;;6.00;74.00
1480;BME280;732;51.698;4.886;2023-03-14T03:33:53;98988.75;;;6.44;74.00
1480;BME280;732;51.698;4.886;2023-03-14T03:36:22;98956.28;;;6.27;74.03
1480;BME280;732;51.698;4.886;2023-03-14T03:38:50;98982.78;;;6.49;73.95
1480;BME280;732;51.698;4.886;2023-03-14T03:41:19;98953.06;;;6.45;73.46
1480;BME280;732;51.698;4.886;2023-03-14T03:43:49;98967.81;;;6.41;73.32
1480;BME280;732;51.698;4.886;2023-03-14T03:46:18;98976.63;;;6.42;73.66
1480;BME280;732;51.698;4.886;2023-03-14T03:48:48;98959.19;;;6.39;73.91
1480;BME280;732;51.698;4.886;2023-03-14T03:51:17;98957.53;;;6.31;73.38
1480;BME280;732;51.698;4.886;2023-03-14T03:53:46;98955.06;;;6.30;73.50
1480;BME280;732;51.698;4.886;2023-03-14T03:56:19;98951.56;;;6.16;73.93
1480;BME280;732;51.698;4.886;2023-03-14T03:58:48;98976.22;;;6.45;73.36
1480;BME280;732;51.698;4.886;2023-03-14T04:01:16;98901.88;;;5.81;74.02
1480;BME280;732;51.698;4.886;2023-03-14T04:03:50;98977.66;;;6.41;73.62
1480;BME280;732;51.698;4.886;2023-03-14T04:06:19;98987.69;;;6.45;73.41
1480;BME280;732;51.698;4.886;2023-03-14T04:08:49;98984.44;;;6.50;73.68
1480;BME280;732;51.698;4.886;2023-03-14T04:11:50;98975.44;;;6.58;73.41
1480;BME280;732;51.698;4.886;2023-03-14T04:14:22;98951.81;;;6.34;73.71
1480;BME280;732;51.698;4.886;2023-03-14T04:17:09;98980.75;;;6.51;73.47
1480;BME280;732;51.698;4.886;2023-03-14T04:19:39;98984.88;;;6.67;73.31
1480;BME280;732;51.698;4.886;2023-03-14T04:22:10;98984.03;;;6.53;73.56
1480;BME280;732;51.698;4.886;2023-03-14T04:24:46;98984.66;;;6.55;73.67
1480;BME280;732;51.698;4.886;2023-03-14T04:27:15;98982.59;;;6.64;73.15
1480;BME280;732;51.698;4.886;2023-03-14T04:29:44;98969.50;;;6.56;73.76
1480;BME280;732;51.698;4.886;2023-03-14T04:32:16;98956.50;;;6.26;74.43
1480;BME280;732;51.698;4.886;2023-03-14T04:34:46;98980.03;;;6.22;75.01
1480;BME280;732;51.698;4.886;2023-03-14T04:37:14;98977.59;;;6.20;75.47
1480;BME280;732;51.698;4.886;2023-03-14T04:39:44;98985.78;;;6.26;75.68
1480;BME280;732;51.698;4.886;2023-03-14T04:42:21;98948.84;;;5.96;76.09
1480;BME280;732;51.698;4.886;2023-03-14T04:44:50;98957.47;;;6.04;76.43
1480;BME280;732;51.698;4.886;2023-03-14T04:47:21;98964.38;;;5.99;77.09
1480;BME280;732;51.698;4.886;2023-03-14T04:49:52;98987.00;;;6.23;77.22
1480;BME280;732;51.698;4.886;2023-03-14T04:52:23;98981.59;;;6.03;77.97
1480;BME280;732;51.698;4.886;2023-03-14T04:54:51;98984.69;;;6.07;78.31
1480;BME280;732;51.698;4.886;2023-03-14T04:57:22;98970.56;;;6.13;78.00
1480;BME280;732;51.698;4.886;2023-03-14T04:59:50;98979.41;;;6.13;78.14
1480;BME280;732;51.698;4.886;2023-03-14T05:02:39;98961.31;;;5.95;78.79
1480;BME280;732;51.698;4.886;2023-03-14T05:05:18;98925.41;;;5.78;78.48
1480;BME280;732;51.698;4.886;2023-03-14T05:08:13;98958.47;;;6.10;78.06
1480;BME280;732;51.698;4.886;2023-03-14T05:11:11;98926.47;;;5.90;79.01
1480;BME280;732;51.698;4.886;2023-03-14T05:13:53;98933.44;;;5.91;79.23
1480;BME280;732;51.698;4.886;2023-03-14T05:16:41;98933.66;;;5.96;79.17
1480;BME280;732;51.698;4.886;2023-03-14T05:19:37;98927.91;;;5.86;78.83
1480;BME280;732;51.698;4.886;2023-03-14T05:22:36;98899.63;;;5.78;78.87
1480;BME280;732;51.698;4.886;2023-03-14T05:25:24;98910.28;;;5.78;79.42
1480;BME280;732;51.698;4.886;2023-03-14T05:28:12;98935.31;;;6.04;79.24
1480;BME280;732;51.698;4.886;2023-03-14T05:30:59;98932.44;;;5.99;79.36
1480;BME280;732;51.698;4.886;2023-03-14T05:33:46;98934.09;;;6.00;79.01
1480;BME280;732;51.698;4.886;2023-03-14T05:36:14;98913.75;;;5.79;79.51
1480;BME280;732;51.698;4.886;2023-03-14T05:39:05;98904.91;;;5.65;80.19
1480;BME280;732;51.698;4.886;2023-03-14T05:41:55;98908.78;;;5.69;80.71
1480;BME280;732;51.698;4.886;2023-03-14T05:44:40;98946.59;;;5.99;80.11
1480;BME280;732;51.698;4.886;2023-03-14T05:47:28;98947.59;;;5.98;81.16
1480;BME280;732;51.698;4.886;2023-03-14T05:50:20;98952.94;;;5.98;80.62
1480;BME280;732;51.698;4.886;2023-03-14T05:52:59;98907.63;;;5.78;80.89
1480;BME280;732;51.698;4.886;2023-03-14T05:55:29;98945.09;;;5.90;81.59
1480;BME280;732;51.698;4.886;2023-03-14T05:58:21;98922.31;;;5.74;82.01
1480;BME280;732;51.698;4.886;2023-03-14T06:01:12;98946.34;;;5.87;82.14
1480;BME280;732;51.698;4.886;2023-03-14T06:04:00;98906.13;;;5.69;81.85
1480;BME280;732;51.698;4.886;2023-03-14T06:06:29;98911.88;;;5.73;82.41
1480;BME280;732;51.698;4.886;2023-03-14T06:08:59;98944.47;;;5.81;83.12
1480;BME280;732;51.698;4.886;2023-03-14T06:11:31;98878.34;;;5.30;83.40
1480;BME280;732;51.698;4.886;2023-03-14T06:14:00;98938.44;;;5.59;84.54
1480;BME280;732;51.698;4.886;2023-03-14T06:16:29;98939.44;;;5.58;84.49
1480;BME280;732;51.698;4.886;2023-03-14T06:19:00;98940.09;;;5.67;84.54
1480;BME280;732;51.698;4.886;2023-03-14T06:21:30;98925.97;;;5.60;84.22
1480;BME280;732;51.698;4.886;2023-03-14T06:23:58;98945.03;;;5.70;84.61
1480;BME280;732;51.698;4.886;2023-03-14T06:26:30;98946.47;;;5.66;84.64
1480;BME280;732;51.698;4.886;2023-03-14T06:28:59;98970.34;;;5.24;85.15
1480;BME280;732;51.698;4.886;2023-03-14T06:31:31;99056.69;;;5.28;84.63
1480;BME280;732;51.698;4.886;2023-03-14T06:34:03;99018.63;;;4.56;83.93
1480;BME280;732;51.698;4.886;2023-03-14T06:36:32;99063.88;;;4.84;84.00
1480;BME280;732;51.698;4.886;2023-03-14T06:39:01;99064.41;;;4.80;83.15
1480;BME280;732;51.698;4.886;2023-03-14T06:41:34;99009.00;;;4.18;83.73
1480;BME280;732;51.698;4.886;2023-03-14T06:44:02;99070.22;;;4.32;83.90
1480;BME280;732;51.698;4.886;2023-03-14T06:46:31;99037.50;;;3.65;84.06
1480;BME280;732;51.698;4.886;2023-03-14T06:49:00;99097.78;;;4.01;84.32
1480;BME280;732;51.698;4.886;2023-03-14T06:51:30;99067.91;;;3.39;85.37
1480;BME280;732;51.698;4.886;2023-03-14T06:53:58;99062.34;;;3.49;84.79
1480;BME280;732;51.698;4.886;2023-03-14T06:56:28;99107.72;;;3.69;84.82
1480;BME280;732;51.698;4.886;2023-03-14T06:58:58;99100.75;;;3.53;85.07
1480;BME280;732;51.698;4.886;2023-03-14T07:01:30;99135.75;;;3.71;84.81
1480;BME280;732;51.698;4.886;2023-03-14T07:04:05;99117.97;;;3.57;84.58
1480;BME280;732;51.698;4.886;2023-03-14T07:06:37;99105.84;;;3.39;84.47
1480;BME280;732;51.698;4.886;2023-03-14T07:09:11;99159.56;;;3.56;84.85
1480;BME280;732;51.698;4.886;2023-03-14T07:11:47;99152.47;;;3.49;85.17
1480;BME280;732;51.698;4.886;2023-03-14T07:14:18;99179.00;;;3.49;85.46
1480;BME280;732;51.698;4.886;2023-03-14T07:16:48;99179.94;;;3.56;85.66
1480;BME280;732;51.698;4.886;2023-03-14T07:19:17;99172.56;;;3.66;85.00
1480;BME280;732;51.698;4.886;2023-03-14T07:21:46;99168.63;;;3.62;84.81
1480;BME280;732;51.698;4.886;2023-03-14T07:24:20;99198.16;;;3.59;84.39
1480;BME280;732;51.698;4.886;2023-03-14T07:26:49;99226.91;;;3.47;85.01
1480;BME280;732;51.698;4.886;2023-03-14T07:29:19;99193.38;;;3.08;85.09
1480;BME280;732;51.698;4.886;2023-03-14T07:31:48;99242.78;;;3.24;85.93
1480;BME280;732;51.698;4.886;2023-03-14T07:34:19;99258.31;;;3.35;85.61
1480;BME280;732;51.698;4.886;2023-03-14T07:36:48;99231.59;;;3.13;84.88
1480;BME280;732;51.698;4.886;2023-03-14T07:39:17;99238.41;;;3.08;84.80
1480;BME280;732;51.698;4.886;2023-03-14T07:41:58;99285.94;;;3.41;84.58
1480;BME280;732;51.698;4.886;2023-03-14T07:44:48;99280.72;;;3.24;84.39
1480;BME280;732;51.698;4.886;2023-03-14T07:47:16;99301.03;;;3.40;84.57
1480;BME280;732;51.698;4.886;2023-03-14T07:49:45;99305.16;;;3.43;84.61
1480;BME280;732;51.698;4.886;2023-03-14T07:52:13;99312.13;;;3.44;84.19
1480;BME280;732;51.698;4.886;2023-03-14T07:54:43;99323.59;;;3.68;84.23
1480;BME280;732;51.698;4.886;2023-03-14T07:57:11;99312.75;;;3.46;83.24
1480;BME280;732;51.698;4.886;2023-03-14T07:59:40;99338.72;;;3.59;83.71
1480;BME280;732;51.698;4.886;2023-03-14T08:02:11;99347.78;;;3.65;83.47
1480;BME280;732;51.698;4.886;2023-03-14T08:04:40;99358.88;;;3.68;83.55
1480;BME280;732;51.698;4.886;2023-03-14T08:07:09;99315.00;;;3.57;83.34
1480;BME280;732;51.698;4.886;2023-03-14T08:09:37;99363.81;;;4.03;82.85
1480;BME280;732;51.698;4.886;2023-03-14T08:12:06;99373.53;;;4.10;82.84
1480;BME280;732;51.698;4.886;2023-03-14T08:14:35;99362.22;;;4.17;82.34
1480;BME280;732;51.698;4.886;2023-03-14T08:17:04;99395.88;;;4.39;82.33
1480;BME280;732;51.698;4.886;2023-03-14T08:19:36;99408.47;;;4.22;82.03
1480;BME280;732;51.698;4.886;2023-03-14T08:22:05;99399.13;;;4.03;82.41
1480;BME280;732;51.698;4.886;2023-03-14T08:24:34;99376.16;;;3.87;82.02
1480;BME280;732;51.698;4.886;2023-03-14T08:27:02;99353.88;;;3.73;82.33
1480;BME280;732;51.698;4.886;2023-03-14T08:29:31;99422.28;;;4.18;82.41
1480;BME280;732;51.698;4.886;2023-03-14T08:31:59;99358.78;;;3.85;82.00
1480;BME280;732;51.698;4.886;2023-03-14T08:34:29;99429.31;;;4.34;81.32
1480;BME280;732;51.698;4.886;2023-03-14T08:36:59;99362.50;;;3.99;81.57
1480;BME280;732;51.698;4.886;2023-03-14T08:39:32;99429.41;;;4.40;80.89
1480;BME280;732;51.698;4.886;2023-03-14T08:42:00;99430.84;;;4.20;80.52
1480;BME280;732;51.698;4.886;2023-03-14T08:44:29;99369.00;;;3.25;81.03
1480;BME280;732;51.698;4.886;2023-03-14T08:46:58;99519.84;;;3.68;82.55
1480;BME280;732;51.698;4.886;2023-03-14T08:49:31;99534.84;;;3.36;83.46
1480;BME280;732;51.698;4.886;2023-03-14T08:52:03;99517.94;;;2.79;84.95
1480;BME280;732;51.698;4.886;2023-03-14T08:54:32;99559.03;;;2.83;85.62
1480;BME280;732;51.698;4.886;2023-03-14T08:57:01;99530.56;;;2.77;85.37
1480;BME280;732;51.698;4.886;2023-03-14T08:59:32;99559.03;;;2.83;84.46
1480;BME280;732;51.698;4.886;2023-03-14T09:02:04;99579.25;;;3.01;82.66
1480;BME280;732;51.698;4.886;2023-03-14T09:04:34;99544.56;;;2.44;82.64
1480;BME280;732;51.698;4.886;2023-03-14T09:07:04;99590.28;;;2.63;83.01
1480;BME280;732;51.698;4.886;2023-03-14T09:09:33;99575.47;;;2.36;82.49
1480;BME280;732;51.698;4.886;2023-03-14T09:12:02;99606.09;;;2.46;82.66
1480;BME280;732;51.698;4.886;2023-03-14T09:14:33;99598.06;;;2.22;81.51
1480;BME280;732;51.698;4.886;2023-03-14T09:17:05;99628.41;;;2.36;82.16
1480;BME280;732;51.698;4.886;2023-03-14T09:19:36;99654.22;;;2.34;81.69
1480;BME280;732;51.698;4.886;2023-03-14T09:22:12;99451.41;;;1.12;81.94
1480;BME280;732;51.698;4.886;2023-03-14T09:24:42;99560.34;;;1.85;80.97
1480;BME280;732;51.698;4.886;2023-03-14T09:27:11;99701.09;;;2.84;81.38
1480;BME280;732;51.698;4.886;2023-03-14T09:29:43;99663.59;;;2.62;79.45
1480;BME280;732;51.698;4.886;2023-03-14T09:32:19;99721.66;;;2.90;78.60
1480;BME280;732;51.698;4.886;2023-03-14T09:34:48;99598.69;;;1.81;78.74
1480;BME280;732;51.698;4.886;2023-03-14T09:37:21;99710.19;;;2.47;77.65
1480;BME280;732;51.698;4.886;2023-03-14T09:39:53;99712.97;;;2.72;76.44
1480;BME280;732;51.698;4.886;2023-03-14T09:42:25;99648.97;;;2.42;75.34
1480;BME280;732;51.698;4.886;2023-03-14T09:44:57;99722.28;;;2.84;74.90
1480;BME280;732;51.698;4.886;2023-03-14T09:47:28;99677.91;;;2.43;74.97
1480;BME280;732;51.698;4.886;2023-03-14T09:49:58;99811.09;;;3.56;74.01
1480;BME280;732;51.698;4.886;2023-03-14T09:52:36;99766.19;;;2.95;73.47
1480;BME280;732;51.698;4.886;2023-03-14T09:55:13;99826.84;;;3.49;75.39
1480;BME280;732;51.698;4.886;2023-03-14T09:57:45;99675.75;;;2.90;72.93
1480;BME280;732;51.698;4.886;2023-03-14T10:00:18;99845.66;;;3.97;72.54
1480;BME280;732;51.698;4.886;2023-03-14T10:02:59;99754.34;;;3.24;71.75
1480;BME280;732;51.698;4.886;2023-03-14T10:05:29;99734.72;;;2.92;72.09
1480;BME280;732;51.698;4.886;2023-03-14T10:07:59;99848.66;;;3.26;71.52
1480;BME280;732;51.698;4.886;2023-03-14T10:10:31;99836.69;;;2.88;73.64
1480;BME280;732;51.698;4.886;2023-03-14T10:13:14;99784.75;;;2.60;75.71
1480;BME280;732;51.698;4.886;2023-03-14T10:15:51;99805.78;;;2.18;73.89
1480;BME280;732;51.698;4.886;2023-03-14T10:18:21;99908.69;;;2.83;74.65
1480;BME280;732;51.698;4.886;2023-03-14T10:21:04;99830.13;;;2.21;73.49
1480;BME280;732;51.698;4.886;2023-03-14T10:23:44;99819.19;;;2.16;73.41
1480;BME280;732;51.698;4.886;2023-03-14T10:26:17;99917.09;;;3.05;74.57
1480;BME280;732;51.698;4.886;2023-03-14T10:28:49;99799.53;;;2.45;73.30
1480;BME280;732;51.698;4.886;2023-03-14T10:31:25;99885.84;;;2.38;74.86
1480;BME280;732;51.698;4.886;2023-03-14T10:34:00;99927.97;;;2.13;74.76
1480;BME280;732;51.698;4.886;2023-03-14T10:36:33;99965.16;;;2.11;76.77
1480;BME280;732;51.698;4.886;2023-03-14T10:39:30;99860.22;;;1.00;78.91
1480;BME280;732;51.698;4.886;2023-03-14T10:42:14;99905.22;;;1.18;78.79
1480;BME280;732;51.698;4.886;2023-03-14T10:44:44;99911.72;;;1.24;78.14
1480;BME280;732;51.698;4.886;2023-03-14T10:47:19;99968.66;;;1.46;78.97
1480;BME280;732;51.698;4.886;2023-03-14T10:49:50;99882.13;;;0.73;77.54
1480;BME280;732;51.698;4.886;2023-03-14T10:52:23;99960.78;;;1.27;76.71
1480;BME280;732;51.698;4.886;2023-03-14T10:55:10;100010.91;;;1.66;77.26
1480;BME280;732;51.698;4.886;2023-03-14T10:57:43;100027.91;;;2.01;75.67
1480;BME280;732;51.698;4.886;2023-03-14T11:00:17;99905.56;;;1.33;74.81
1480;BME280;732;51.698;4.886;2023-03-14T11:02:58;99968.94;;;2.09;75.48
1480;BME280;732;51.698;4.886;2023-03-14T11:05:34;99975.41;;;2.60;73.85
1480;BME280;732;51.698;4.886;2023-03-14T11:08:14;100126.06;;;3.80;73.34
1480;BME280;732;51.698;4.886;2023-03-14T11:10:51;100022.75;;;2.82;69.97
1480;BME280;732;51.698;4.886;2023-03-14T11:13:26;100141.38;;;3.42;71.56
1480;BME280;732;51.698;4.886;2023-03-14T11:16:04;100069.75;;;2.61;71.69
1480;BME280;732;51.698;4.886;2023-03-14T11:19:00;100074.31;;;2.23;71.28
1480;BME280;732;51.698;4.886;2023-03-14T11:21:46;100035.28;;;1.60;73.21
1480;BME280;732;51.698;4.886;2023-03-14T11:27:21;100043.19;;;1.70;73.65
1480;BME280;732;51.698;4.886;2023-03-14T11:29:55;100130.34;;;2.37;73.14
1480;BME280;732;51.698;4.886;2023-03-14T11:32:43;100076.00;;;2.42;71.42
1480;BME280;732;51.698;4.886;2023-03-14T11:35:22;100066.00;;;2.36;69.90
1480;BME280;732;51.698;4.886;2023-03-14T11:37:55;100144.38;;;2.75;70.09
1480;BME280;732;51.698;4.886;2023-03-14T11:40:27;100213.94;;;3.41;70.08
1480;BME280;732;51.698;4.886;2023-03-14T11:43:09;100007.97;;;2.43;68.08
1480;BME280;732;51.698;4.886;2023-03-14T11:45:41;100115.41;;;2.91;66.69
1480;BME280;732;51.698;4.886;2023-03-14T11:48:22;100099.56;;;2.82;66.59
1480;BME280;732;51.698;4.886;2023-03-14T11:50:57;100057.56;;;2.69;67.70
1480;BME280;732;51.698;4.886;2023-03-14T11:53:45;100179.94;;;3.36;64.19
1480;BME280;732;51.698;4.886;2023-03-14T11:56:27;100125.25;;;2.81;62.93
1480;BME280;732;51.698;4.886;2023-03-14T11:59:05;100083.28;;;2.58;65.67
1480;BME280;732;51.698;4.886;2023-03-14T12:01:53;100188.56;;;3.38;63.41
1480;BME280;732;51.698;4.886;2023-03-14T12:04:43;100123.41;;;2.82;62.87
1480;BME280;732;51.698;4.886;2023-03-14T12:07:20;100272.38;;;3.85;62.96
1480;BME280;732;51.698;4.886;2023-03-14T12:09:52;100229.03;;;3.58;61.28
1480;BME280;732;51.698;4.886;2023-03-14T12:12:25;100285.28;;;3.80;60.37
1480;BME280;732;51.698;4.886;2023-03-14T12:15:00;100288.88;;;3.97;62.70
1480;BME280;732;51.698;4.886;2023-03-14T12:17:36;100259.84;;;3.96;60.44
1480;BME280;732;51.698;4.886;2023-03-14T12:20:17;100166.53;;;3.38;57.01
1480;BME280;732;51.698;4.886;2023-03-14T12:22:48;100246.94;;;4.01;58.87
1480;BME280;732;51.698;4.886;2023-03-14T12:25:21;100295.13;;;4.32;51.73
1480;BME280;732;51.698;4.886;2023-03-14T12:28:20;100251.22;;;3.93;49.68
1480;BME280;732;51.698;4.886;2023-03-14T12:30:50;100320.53;;;4.53;48.08
1480;BME280;732;51.698;4.886;2023-03-14T12:33:30;100290.78;;;4.76;51.45
1480;BME280;732;51.698;4.886;2023-03-14T12:36:47;100330.31;;;5.13;47.86
1480;BME280;732;51.698;4.886;2023-03-14T12:39:30;100325.00;;;5.13;46.33
1480;BME280;732;51.698;4.886;2023-03-14T12:42:07;100241.72;;;4.35;45.62
1480;BME280;732;51.698;4.886;2023-03-14T12:44:47;100293.34;;;4.41;47.03
1480;BME280;732;51.698;4.886;2023-03-14T12:48:09;100257.81;;;4.34;48.14
1480;BME280;732;51.698;4.886;2023-03-14T12:50:44;100311.97;;;4.94;47.16
1480;BME280;732;51.698;4.886;2023-03-14T12:54:11;100353.22;;;4.71;48.15
1480;BME280;732;51.698;4.886;2023-03-14T12:57:03;100311.94;;;4.41;45.40
1480;BME280;732;51.698;4.886;2023-03-14T12:59:36;100279.75;;;3.91;45.61
1480;BME280;732;51.698;4.886;2023-03-14T13:02:21;100323.16;;;4.26;45.72
1480;BME280;732;51.698;4.886;2023-03-14T13:05:05;100348.84;;;4.44;44.18
1480;BME280;732;51.698;4.886;2023-03-14T13:08:09;100408.66;;;5.19;44.44
1480;BME280;732;51.698;4.886;2023-03-14T13:10:47;100408.38;;;5.30;42.69
1480;BME280;732;51.698;4.886;2023-03-14T13:13:25;100254.03;;;3.92;43.27
1480;BME280;732;51.698;4.886;2023-03-14T13:16:00;100383.06;;;4.11;44.03
1480;BME280;732;51.698;4.886;2023-03-14T13:18:35;100362.00;;;4.09;43.17
1480;BME280;732;51.698;4.886;2023-03-14T13:21:15;100383.25;;;4.28;43.23
1480;BME280;732;51.698;4.886;2023-03-14T13:23:58;100286.25;;;3.79;44.70
1480;BME280;732;51.698;4.886;2023-03-14T13:26:34;100316.81;;;4.46;44.09
1480;BME280;732;51.698;4.886;2023-03-14T13:29:16;100322.13;;;4.64;42.76
1480;BME280;732;51.698;4.886;2023-03-14T13:31:48;100337.38;;;4.43;41.01
1480;BME280;732;51.698;4.886;2023-03-14T13:34:19;100474.31;;;4.74;41.96
1480;BME280;732;51.698;4.886;2023-03-14T13:36:53;100476.44;;;4.88;44.63
1480;BME280;732;51.698;4.886;2023-03-14T13:39:25;100457.75;;;4.62;43.35
1480;BME280;732;51.698;4.886;2023-03-14T13:41:59;100442.81;;;4.25;45.27
1480;BME280;732;51.698;4.886;2023-03-14T13:44:31;100468.63;;;4.51;45.96
1480;BME280;732;51.698;4.886;2023-03-14T13:47:03;100484.63;;;4.77;45.85
1480;BME280;732;51.698;4.886;2023-03-14T13:49:33;100506.44;;;4.63;45.43
1480;BME280;732;51.698;4.886;2023-03-14T13:52:28;100512.78;;;4.34;43.28
1480;BME280;732;51.698;4.886;2023-03-14T13:55:00;100505.47;;;4.36;42.14
1480;BME280;732;51.698;4.886;2023-03-14T13:57:44;100523.59;;;4.68;42.94
1480;BME280;732;51.698;4.886;2023-03-14T14:00:22;100539.22;;;4.89;41.61
1480;BME280;732;51.698;4.886;2023-03-14T14:02:55;100499.97;;;4.83;41.80
1480;BME280;732;51.698;4.886;2023-03-14T14:05:28;100533.09;;;4.89;41.75
1480;BME280;732;51.698;4.886;2023-03-14T14:07:58;100574.34;;;4.47;42.34
1480;BME280;732;51.698;4.886;2023-03-14T14:10:29;100575.00;;;4.31;42.83
1480;BME280;732;51.698;4.886;2023-03-14T14:13:01;100581.88;;;4.52;43.25
1480;BME280;732;51.698;4.886;2023-03-14T14:15:31;100601.78;;;4.48;42.26
1480;BME280;732;51.698;4.886;2023-03-14T14:18:04;100603.00;;;4.16;44.29
1480;BME280;732;51.698;4.886;2023-03-14T14:20:37;100588.84;;;3.97;44.22
1480;BME280;732;51.698;4.886;2023-03-14T14:23:14;100583.25;;;4.00;43.67
1480;BME280;732;51.698;4.886;2023-03-14T14:25:44;100554.03;;;4.00;42.64